sensor_id;sensor_type;location;lat;lon;timestamp;pressure;altitude;pressure_sealevel;temperature;humidity
35519;BME280;21627;48.216;16.482;2024-01-10T00:00:49;101439.63;;;-9.07;100.00
35519;BME280;21627;48.216;16.482;2024-01-10T00:03:16;101441.41;;;-9.06;100.00
35519;BME280;21627;48.216;16.482;2024-01-10T00:05:44;101440.28;;;-9.17;100.00
35519;BME280;21627;48.216;16.482;2024-01-10T00:08:11;101429.19;;;-9.19;100.00
35519;BME280;21627;48.216;16.482;2024-01-10T00:10:38;101431.44;;;-9.13;100.00
35519;BME280;21627;48.216;16.482;2024-01-10T00:13:06;101422.09;;;-9.23;100.00
35519;BME280;21627;48.216;16.482;2024-01-10T00:15:33;101427.31;;;-9.12;100.00
35519;BME280;21627;48.216;16.482;2024-01-10T00:18:00;101418.78;;;-9.15;100.00
35519;BME280;21627;48.216;16.482;2024-01-10T00:20:27;101413.91;;;-9.13;100.00
35519;BME280;21627;48.216;16.482;2024-01-10T00:22:54;101431.63;;;-9.11;100.00
35519;BME280;21627;48.216;16.482;2024-01-10T00:25:21;101431.44;;;-9.13;100.00
35519;BME280;21627;48.216;16.482;2024-01-10T00:27:48;101437.22;;;-9.14;100.00
35519;BME280;21627;48.216;16.482;2024-01-10T00:30:16;101428.16;;;-9.21;100.00
35519;BME280;21627;48.216;16.482;2024-01-10T00:32:43;101431.72;;;-9.19;100.00
35519;BME280;21627;48.216;16.482;2024-01-10T00:35:10;101427.25;;;-9.21;100.00
35519;BME280;21627;48.216;16.482;2024-01-10T00:37:38;101429.09;;;-9.27;100.00
35519;BME280;21627;48.216;16.482;2024-01-10T00:40:06;101431.78;;;-9.26;100.00
35519;BME280;21627;48.216;16.482;2024-01-10T00:42:34;101425.09;;;-9.34;100.00
35519;BME280;21627;48.216;16.482;2024-01-10T00:45:02;101435.09;;;-9.34;100.00
35519;BME280;21627;48.216;16.482;2024-01-10T00:47:29;101431.88;;;-9.33;100.00
35519;BME280;21627;48.216;16.482;2024-01-10T00:49:56;101436.78;;;-9.26;100.00
35519;BME280;21627;48.216;16.482;2024-01-10T00:52:24;101433.22;;;-9.28;100.00
35519;BME280;21627;48.216;16.482;2024-01-10T00:54:52;101429.91;;;-9.36;100.00
35519;BME280;21627;48.216;16.482;2024-01-10T00:57:21;101435.81;;;-9.35;100.00
35519;BME280;21627;48.216;16.482;2024-01-10T00:59:49;101432.28;;;-9.37;100.00
35519;BME280;21627;48.216;16.482;2024-01-10T01:02:21;101429.09;;;-9.27;100.00
35519;BME280;21627;48.216;16.482;2024-01-10T01:04:50;101428.78;;;-9.30;100.00
35519;BME280;21627;48.216;16.482;2024-01-10T01:07:18;101428.97;;;-9.29;100.00
35519;BME280;21627;48.216;16.482;2024-01-10T01:09:47;101439.56;;;-9.31;100.00
35519;BME280;21627;48.216;16.482;2024-01-10T01:12:15;101431.53;;;-9.36;100.00
35519;BME280;21627;48.216;16.482;2024-01-10T01:14:45;101440.56;;;-9.45;100.00
35519;BME280;21627;48.216;16.482;2024-01-10T01:17:14;101432.13;;;-9.54;100.00
35519;BME280;21627;48.216;16.482;2024-01-10T01:19:42;101437.25;;;-9.53;100.00
35519;BME280;21627;48.216;16.482;2024-01-10T01:22:11;101437.63;;;-9.50;100.00
35519;BME280;21627;48.216;16.482;2024-01-10T01:24:39;101435.09;;;-9.50;100.00
35519;BME280;21627;48.216;16.482;2024-01-10T01:27:06;101439.13;;;-9.59;100.00
35519;BME280;21627;48.216;16.482;2024-01-10T01:29:33;101426.19;;;-9.55;100.00
35519;BME280;21627;48.216;16.482;2024-01-10T01:32:00;101436.19;;;-9.55;100.00
35519;BME280;21627;48.216;16.482;2024-01-10T01:34:28;101435.19;;;-9.57;100.00
35519;BME280;21627;48.216;16.482;2024-01-10T01:36:56;101436.31;;;-9.46;100.00
35519;BME280;21627;48.216;16.482;2024-01-10T01:39:25;101437.44;;;-9.51;100.00
35519;BME280;21627;48.216;16.482;2024-01-10T01:41:54;101437.13;;;-9.54;100.00
35519;BME280;21627;48.216;16.482;2024-01-10T01:44:22;101435.63;;;-9.52;100.00
35519;BME280;21627;48.216;16.482;2024-01-10T01:46:51;101435.81;;;-9.51;100.00
35519;BME280;21627;48.216;16.482;2024-01-10T01:49:19;101445.66;;;-9.52;100.00
35519;BME280;21627;48.216;16.482;2024-01-10T01:51:48;101433.69;;;-9.55;100.00
35519;BME280;21627;48.216;16.482;2024-01-10T01:54:17;101431.44;;;-9.61;100.00
35519;BME280;21627;48.216;16.482;2024-01-10T01:56:45;101445.25;;;-9.64;100.00
35519;BME280;21627;48.216;16.482;2024-01-10T01:59:13;101443.31;;;-9.67;100.00
35519;BME280;21627;48.216;16.482;2024-01-10T02:01:40;101437.25;;;-9.69;100.00
35519;BME280;21627;48.216;16.482;2024-01-10T02:04:08;101433.88;;;-9.69;100.00
35519;BME280;21627;48.216;16.482;2024-01-10T02:06:35;101436.69;;;-9.66;100.00
35519;BME280;21627;48.216;16.482;2024-01-10T02:09:02;101429.09;;;-9.75;100.00
35519;BME280;21627;48.216;16.482;2024-01-10T02:11:30;101427.38;;;-9.83;100.00
35519;BME280;21627;48.216;16.482;2024-01-10T02:13:58;101430.38;;;-9.78;100.00
35519;BME280;21627;48.216;16.482;2024-01-10T02:16:25;101436.66;;;-9.82;100.00
35519;BME280;21627;48.216;16.482;2024-01-10T02:18:52;101430.28;;;-9.87;100.00
35519;BME280;21627;48.216;16.482;2024-01-10T02:21:22;101428.81;;;-9.85;100.00
35519;BME280;21627;48.216;16.482;2024-01-10T02:23:50;101423.72;;;-9.94;100.00
35519;BME280;21627;48.216;16.482;2024-01-10T02:26:17;101431.72;;;-9.89;100.00
35519;BME280;21627;48.216;16.482;2024-01-10T02:28:45;101429.94;;;-9.90;100.00
35519;BME280;21627;48.216;16.482;2024-01-10T02:31:12;101430.34;;;-9.94;100.00
35519;BME280;21627;48.216;16.482;2024-01-10T02:33:39;101430.84;;;-9.90;100.00
35519;BME280;21627;48.216;16.482;2024-01-10T02:36:07;101423.91;;;-9.92;100.00
35519;BME280;21627;48.216;16.482;2024-01-10T02:38:34;101427.16;;;-9.77;100.00
35519;BME280;21627;48.216;16.482;2024-01-10T02:41:01;101426.16;;;-9.87;100.00
35519;BME280;21627;48.216;16.482;2024-01-10T02:43:30;101421.59;;;-9.98;100.00
35519;BME280;21627;48.216;16.482;2024-01-10T02:45:57;101423.41;;;-9.97;100.00
35519;BME280;21627;48.216;16.482;2024-01-10T02:48:25;101436.59;;;-9.98;100.00
35519;BME280;21627;48.216;16.482;2024-01-10T02:50:53;101427.41;;;-10.06;100.00
35519;BME280;21627;48.216;16.482;2024-01-10T02:53:21;101421.41;;;-10.15;100.00
35519;BME280;21627;48.216;16.482;2024-01-10T02:55:50;101424.00;;;-10.07;100.00
35519;BME280;21627;48.216;16.482;2024-01-10T02:58:17;101420.31;;;-10.10;100.00
35519;BME280;21627;48.216;16.482;2024-01-10T03:00:44;101421.31;;;-10.08;100.00
35519;BME280;21627;48.216;16.482;2024-01-10T03:03:11;101410.75;;;-10.06;100.00
35519;BME280;21627;48.216;16.482;2024-01-10T03:05:38;101408.13;;;-10.07;100.00
35519;BME280;21627;48.216;16.482;2024-01-10T03:08:06;101412.44;;;-10.13;100.00
35519;BME280;21627;48.216;16.482;2024-01-10T03:10:34;101421.06;;;-10.18;100.00
35519;BME280;21627;48.216;16.482;2024-01-10T03:13:01;101417.13;;;-10.16;100.00
35519;BME280;21627;48.216;16.482;2024-01-10T03:15:28;101412.13;;;-10.16;100.00
35519;BME280;21627;48.216;16.482;2024-01-10T03:17:55;101411.78;;;-10.19;100.00
35519;BME280;21627;48.216;16.482;2024-01-10T03:20:22;101409.09;;;-10.21;100.00
35519;BME280;21627;48.216;16.482;2024-01-10T03:22:50;101412.63;;;-10.12;100.00
35519;BME280;21627;48.216;16.482;2024-01-10T03:25:17;101416.63;;;-10.21;100.00
35519;BME280;21627;48.216;16.482;2024-01-10T03:27:44;101415.22;;;-10.26;100.00
35519;BME280;21627;48.216;16.482;2024-01-10T03:30:11;101407.91;;;-10.25;100.00
35519;BME280;21627;48.216;16.482;2024-01-10T03:32:38;101417.16;;;-10.24;100.00
35519;BME280;21627;48.216;16.482;2024-01-10T03:35:08;101414.44;;;-10.18;100.00
35519;BME280;21627;48.216;16.482;2024-01-10T03:37:35;101416.28;;;-10.24;100.00
35519;BME280;21627;48.216;16.482;2024-01-10T03:40:02;101415.34;;;-10.17;100.00
35519;BME280;21627;48.216;16.482;2024-01-10T03:42:30;101415.84;;;-10.13;100.00
35519;BME280;21627;48.216;16.482;2024-01-10T03:44:57;101412.06;;;-10.09;100.00
35519;BME280;21627;48.216;16.482;2024-01-10T03:47:24;101415.31;;;-10.10;100.00
35519;BME280;21627;48.216;16.482;2024-01-10T03:49:51;101408.22;;;-10.21;100.00
35519;BME280;21627;48.216;16.482;2024-01-10T03:52:18;101416.47;;;-10.23;100.00
35519;BME280;21627;48.216;16.482;2024-01-10T03:54:46;101405.53;;;-10.23;100.00
35519;BME280;21627;48.216;16.482;2024-01-10T03:57:13;101405.66;;;-10.30;100.00
35519;BME280;21627;48.216;16.482;2024-01-10T03:59:40;101401.69;;;-10.28;100.00
35519;BME280;21627;48.216;16.482;2024-01-10T04:02:07;101398.78;;;-10.40;100.00
35519;BME280;21627;48.216;16.482;2024-01-10T04:04:37;101402.16;;;-10.39;100.00
35519;BME280;21627;48.216;16.482;2024-01-10T04:07:06;101408.91;;;-10.38;100.00
35519;BME280;21627;48.216;16.482;2024-01-10T04:09:33;101414.28;;;-10.35;100.00
35519;BME280;21627;48.216;16.482;2024-01-10T04:12:00;101407.16;;;-10.39;100.00
35519;BME280;21627;48.216;16.482;2024-01-10T04:14:28;101406.91;;;-10.34;100.00
35519;BME280;21627;48.216;16.482;2024-01-10T04:16:55;101401.22;;;-10.33;100.00
35519;BME280;21627;48.216;16.482;2024-01-10T04:19:22;101396.97;;;-10.41;100.00
35519;BME280;21627;48.216;16.482;2024-01-10T04:21:49;101402.88;;;-10.40;100.00
35519;BME280;21627;48.216;16.482;2024-01-10T04:24:16;101401.50;;;-10.46;100.00
35519;BME280;21627;48.216;16.482;2024-01-10T04:26:43;101394.69;;;-10.47;100.00
35519;BME280;21627;48.216;16.482;2024-01-10T04:29:10;101394.31;;;-10.42;100.00
35519;BME280;21627;48.216;16.482;2024-01-10T04:31:38;101403.03;;;-10.39;100.00
35519;BME280;21627;48.216;16.482;2024-01-10T04:34:06;101395.25;;;-10.49;100.00
35519;BME280;21627;48.216;16.482;2024-01-10T04:36:33;101397.53;;;-10.43;100.00
35519;BME280;21627;48.216;16.482;2024-01-10T04:39:00;101406.03;;;-10.34;100.00
35519;BME280;21627;48.216;16.482;2024-01-10T04:41:27;101389.41;;;-10.34;100.00
35519;BME280;21627;48.216;16.482;2024-01-10T04:43:55;101393.03;;;-10.39;100.00
35519;BME280;21627;48.216;16.482;2024-01-10T04:46:22;101391.66;;;-10.44;100.00
35519;BME280;21627;48.216;16.482;2024-01-10T04:48:49;101390.38;;;-10.40;100.00
35519;BME280;21627;48.216;16.482;2024-01-10T04:51:16;101392.53;;;-10.43;100.00
35519;BME280;21627;48.216;16.482;2024-01-10T04:53:43;101386.38;;;-10.54;100.00
35519;BME280;21627;48.216;16.482;2024-01-10T04:56:10;101400.81;;;-10.52;100.00
35519;BME280;21627;48.216;16.482;2024-01-10T04:58:37;101397.47;;;-10.59;100.00
35519;BME280;21627;48.216;16.482;2024-01-10T05:01:04;101391.97;;;-10.64;100.00
35519;BME280;21627;48.216;16.482;2024-01-10T05:03:32;101390.34;;;-10.63;100.00
35519;BME280;21627;48.216;16.482;2024-01-10T05:06:00;101396.72;;;-10.58;100.00
35519;BME280;21627;48.216;16.482;2024-01-10T05:08:27;101395.91;;;-10.66;100.00
35519;BME280;21627;48.216;16.482;2024-01-10T05:10:54;101395.47;;;-10.55;100.00
35519;BME280;21627;48.216;16.482;2024-01-10T05:13:21;101400.84;;;-10.59;100.00
35519;BME280;21627;48.216;16.482;2024-01-10T05:15:48;101403.91;;;-10.61;100.00
35519;BME280;21627;48.216;16.482;2024-01-10T05:18:16;101395.84;;;-10.59;100.00
35519;BME280;21627;48.216;16.482;2024-01-10T05:20:44;101397.13;;;-10.62;100.00
35519;BME280;21627;48.216;16.482;2024-01-10T05:23:11;101393.09;;;-10.76;100.00
35519;BME280;21627;48.216;16.482;2024-01-10T05:25:38;101395.97;;;-10.73;100.00
35519;BME280;21627;48.216;16.482;2024-01-10T05:28:06;101394.69;;;-10.70;100.00
35519;BME280;21627;48.216;16.482;2024-01-10T05:30:33;101390.00;;;-10.67;100.00
35519;BME280;21627;48.216;16.482;2024-01-10T05:33:00;101394.69;;;-10.70;100.00
35519;BME280;21627;48.216;16.482;2024-01-10T05:35:28;101392.38;;;-10.68;100.00
35519;BME280;21627;48.216;16.482;2024-01-10T05:37:55;101386.97;;;-10.64;100.00
35519;BME280;21627;48.216;16.482;2024-01-10T05:40:23;101390.72;;;-10.60;100.00
35519;BME280;21627;48.216;16.482;2024-01-10T05:42:50;101389.47;;;-10.64;100.00
35519;BME280;21627;48.216;16.482;2024-01-10T05:45:17;101390.75;;;-10.68;100.00
35519;BME280;21627;48.216;16.482;2024-01-10T05:47:45;101396.44;;;-10.69;100.00
35519;BME280;21627;48.216;16.482;2024-01-10T05:50:12;101395.75;;;-10.68;100.00
35519;BME280;21627;48.216;16.482;2024-01-10T05:52:39;101388.75;;;-10.63;100.00
35519;BME280;21627;48.216;16.482;2024-01-10T05:55:07;101399.09;;;-10.60;100.00
35519;BME280;21627;48.216;16.482;2024-01-10T05:57:36;101383.97;;;-10.69;100.00
35519;BME280;21627;48.216;16.482;2024-01-10T06:00:05;101398.75;;;-10.63;100.00
35519;BME280;21627;48.216;16.482;2024-01-10T06:02:37;101397.50;;;-10.67;100.00
35519;BME280;21627;48.216;16.482;2024-01-10T06:05:10;101388.25;;;-10.68;100.00
35519;BME280;21627;48.216;16.482;2024-01-10T06:07:39;101396.31;;;-10.70;100.00
35519;BME280;21627;48.216;16.482;2024-01-10T06:10:07;101383.81;;;-10.70;100.00
35519;BME280;21627;48.216;16.482;2024-01-10T06:12:34;101391.41;;;-10.61;100.00
35519;BME280;21627;48.216;16.482;2024-01-10T06:15:02;101399.97;;;-10.59;100.00
35519;BME280;21627;48.216;16.482;2024-01-10T06:17:30;101403.06;;;-10.69;100.00
35519;BME280;21627;48.216;16.482;2024-01-10T06:19:58;101391.66;;;-10.74;100.00
35519;BME280;21627;48.216;16.482;2024-01-10T06:22:27;101387.41;;;-10.75;100.00
35519;BME280;21627;48.216;16.482;2024-01-10T06:24:56;101384.41;;;-10.80;100.00
35519;BME280;21627;48.216;16.482;2024-01-10T06:27:23;101399.47;;;-10.64;100.00
35519;BME280;21627;48.216;16.482;2024-01-10T06:29:51;101389.50;;;-10.71;100.00
35519;BME280;21627;48.216;16.482;2024-01-10T06:32:18;101400.53;;;-10.62;100.00
35519;BME280;21627;48.216;16.482;2024-01-10T06:34:45;101402.00;;;-10.71;100.00
35519;BME280;21627;48.216;16.482;2024-01-10T06:37:12;101405.41;;;-10.71;100.00
35519;BME280;21627;48.216;16.482;2024-01-10T06:39:39;101409.31;;;-10.65;100.00
35519;BME280;21627;48.216;16.482;2024-01-10T06:42:08;101415.88;;;-10.66;100.00
35519;BME280;21627;48.216;16.482;2024-01-10T06:44:38;101410.19;;;-10.65;100.00
35519;BME280;21627;48.216;16.482;2024-01-10T06:47:05;101417.34;;;-10.68;100.00
35519;BME280;21627;48.216;16.482;2024-01-10T06:49:32;101408.78;;;-10.70;100.00
35519;BME280;21627;48.216;16.482;2024-01-10T06:52:00;101421.31;;;-10.47;100.00
35519;BME280;21627;48.216;16.482;2024-01-10T06:54:27;101420.97;;;-10.50;100.00
35519;BME280;21627;48.216;16.482;2024-01-10T06:56:54;101424.03;;;-10.53;100.00
35519;BME280;21627;48.216;16.482;2024-01-10T06:59:22;101421.53;;;-10.53;100.00
35519;BME280;21627;48.216;16.482;2024-01-10T07:01:55;101418.47;;;-10.50;100.00
35519;BME280;21627;48.216;16.482;2024-01-10T07:04:23;101425.53;;;-10.39;100.00
35519;BME280;21627;48.216;16.482;2024-01-10T07:06:51;101420.38;;;-10.40;100.00
35519;BME280;21627;48.216;16.482;2024-01-10T07:09:19;101419.47;;;-10.41;100.00
35519;BME280;21627;48.216;16.482;2024-01-10T07:11:50;101416.97;;;-10.41;100.00
35519;BME280;21627;48.216;16.482;2024-01-10T07:14:17;101424.31;;;-10.42;100.00
35519;BME280;21627;48.216;16.482;2024-01-10T07:16:44;101430.13;;;-10.28;100.00
35519;BME280;21627;48.216;16.482;2024-01-10T07:19:14;101433.06;;;-10.23;100.00
35519;BME280;21627;48.216;16.482;2024-01-10T07:21:42;101433.47;;;-10.27;100.00
35519;BME280;21627;48.216;16.482;2024-01-10T07:24:09;101434.94;;;-10.29;100.00
35519;BME280;21627;48.216;16.482;2024-01-10T07:26:37;101439.75;;;-10.31;100.00
35519;BME280;21627;48.216;16.482;2024-01-10T07:29:04;101438.06;;;-10.23;100.00
35519;BME280;21627;48.216;16.482;2024-01-10T07:31:36;101431.06;;;-10.18;100.00
35519;BME280;21627;48.216;16.482;2024-01-10T07:34:03;101434.13;;;-10.21;100.00
35519;BME280;21627;48.216;16.482;2024-01-10T07:36:41;101442.63;;;-10.12;100.00
35519;BME280;21627;48.216;16.482;2024-01-10T07:39:09;101438.91;;;-9.92;100.00
35519;BME280;21627;48.216;16.482;2024-01-10T07:41:37;101432.53;;;-9.97;100.00
35519;BME280;21627;48.216;16.482;2024-01-10T07:44:04;101438.50;;;-9.88;100.00
35519;BME280;21627;48.216;16.482;2024-01-10T07:46:31;101436.75;;;-9.73;100.00
35519;BME280;21627;48.216;16.482;2024-01-10T07:48:58;101440.56;;;-9.77;100.00
35519;BME280;21627;48.216;16.482;2024-01-10T07:51:27;101438.00;;;-9.70;100.00
35519;BME280;21627;48.216;16.482;2024-01-10T07:53:54;101447.69;;;-9.57;100.00
35519;BME280;21627;48.216;16.482;2024-01-10T07:56:22;101445.50;;;-9.54;100.00
35519;BME280;21627;48.216;16.482;2024-01-10T07:58:49;101447.88;;;-9.40;100.00
35519;BME280;21627;48.216;16.482;2024-01-10T08:01:16;101453.28;;;-9.44;100.00
35519;BME280;21627;48.216;16.482;2024-01-10T08:03:43;101441.25;;;-9.39;100.00
35519;BME280;21627;48.216;16.482;2024-01-10T08:06:11;101432.75;;;-9.32;100.00
35519;BME280;21627;48.216;16.482;2024-01-10T08:08:52;101443.19;;;-9.21;100.00
35519;BME280;21627;48.216;16.482;2024-01-10T08:11:20;101437.78;;;-9.17;100.00
35519;BME280;21627;48.216;16.482;2024-01-10T08:13:47;101442.84;;;-9.08;100.00
35519;BME280;21627;48.216;16.482;2024-01-10T08:16:14;101447.03;;;-9.00;100.00
35519;BME280;21627;48.216;16.482;2024-01-10T08:18:41;101447.22;;;-8.98;100.00
35519;BME280;21627;48.216;16.482;2024-01-10T08:21:09;101444.84;;;-8.81;100.00
35519;BME280;21627;48.216;16.482;2024-01-10T08:23:36;101445.91;;;-8.79;100.00
35519;BME280;21627;48.216;16.482;2024-01-10T08:26:06;101443.25;;;-8.56;100.00
35519;BME280;21627;48.216;16.482;2024-01-10T08:28:35;101446.81;;;-8.54;100.00
35519;BME280;21627;48.216;16.482;2024-01-10T08:31:02;101445.22;;;-8.44;100.00
35519;BME280;21627;48.216;16.482;2024-01-10T08:33:32;101455.28;;;-8.36;100.00
35519;BME280;21627;48.216;16.482;2024-01-10T08:35:59;101454.44;;;-8.28;100.00
35519;BME280;21627;48.216;16.482;2024-01-10T08:38:26;101449.22;;;-8.13;100.00
35519;BME280;21627;48.216;16.482;2024-01-10T08:40:53;101449.88;;;-7.98;100.00
35519;BME280;21627;48.216;16.482;2024-01-10T08:43:21;101445.19;;;-7.87;100.00
35519;BME280;21627;48.216;16.482;2024-01-10T08:45:48;101445.34;;;-7.76;100.00
35519;BME280;21627;48.216;16.482;2024-01-10T08:48:15;101449.84;;;-7.65;100.00
35519;BME280;21627;48.216;16.482;2024-01-10T08:50:43;101442.03;;;-7.59;100.00
35519;BME280;21627;48.216;16.482;2024-01-10T08:53:11;101441.31;;;-7.50;100.00
35519;BME280;21627;48.216;16.482;2024-01-10T08:55:38;101452.56;;;-7.37;100.00
35519;BME280;21627;48.216;16.482;2024-01-10T08:58:05;101440.59;;;-7.31;100.00
35519;BME280;21627;48.216;16.482;2024-01-10T09:00:34;101450.38;;;-7.17;100.00
35519;BME280;21627;48.216;16.482;2024-01-10T09:03:03;101446.09;;;-7.01;100.00
35519;BME280;21627;48.216;16.482;2024-01-10T09:05:31;101444.94;;;-6.87;100.00
35519;BME280;21627;48.216;16.482;2024-01-10T09:07:58;101453.50;;;-6.67;100.00
35519;BME280;21627;48.216;16.482;2024-01-10T09:10:26;101447.41;;;-6.61;100.00
35519;BME280;21627;48.216;16.482;2024-01-10T09:12:58;101445.03;;;-6.50;100.00
35519;BME280;21627;48.216;16.482;2024-01-10T09:15:25;101445.59;;;-6.27;100.00
35519;BME280;21627;48.216;16.482;2024-01-10T09:17:52;101445.09;;;-6.23;100.00
35519;BME280;21627;48.216;16.482;2024-01-10T09:20:20;101455.28;;;-6.13;100.00
35519;BME280;21627;48.216;16.482;2024-01-10T09:22:47;101449.22;;;-6.06;100.00
35519;BME280;21627;48.216;16.482;2024-01-10T09:25:16;101448.16;;;-5.99;100.00
35519;BME280;21627;48.216;16.482;2024-01-10T09:27:44;101445.84;;;-5.88;100.00
35519;BME280;21627;48.216;16.482;2024-01-10T09:30:13;101437.22;;;-5.81;100.00
35519;BME280;21627;48.216;16.482;2024-01-10T09:32:40;101433.50;;;-5.76;100.00
35519;BME280;21627;48.216;16.482;2024-01-10T09:35:08;101436.88;;;-5.67;100.00
35519;BME280;21627;48.216;16.482;2024-01-10T09:37:36;101428.66;;;-5.55;100.00
35519;BME280;21627;48.216;16.482;2024-01-10T09:40:04;101432.34;;;-5.52;100.00
35519;BME280;21627;48.216;16.482;2024-01-10T09:42:34;101416.91;;;-5.46;100.00
35519;BME280;21627;48.216;16.482;2024-01-10T09:45:08;101422.47;;;-5.40;100.00
35519;BME280;21627;48.216;16.482;2024-01-10T09:47:39;101418.47;;;-5.38;100.00
35519;BME280;21627;48.216;16.482;2024-01-10T09:50:09;101416.28;;;-5.25;100.00
35519;BME280;21627;48.216;16.482;2024-01-10T09:52:56;101417.28;;;-5.14;100.00
35519;BME280;21627;48.216;16.482;2024-01-10T09:55:26;101412.91;;;-5.06;100.00
35519;BME280;21627;48.216;16.482;2024-01-10T09:57:57;101412.34;;;-4.93;100.00
35519;BME280;21627;48.216;16.482;2024-01-10T10:00:25;101415.34;;;-4.79;100.00
35519;BME280;21627;48.216;16.482;2024-01-10T10:02:54;101399.59;;;-4.76;100.00
35519;BME280;21627;48.216;16.482;2024-01-10T10:05:23;101410.47;;;-4.38;100.00
35519;BME280;21627;48.216;16.482;2024-01-10T10:07:51;101404.28;;;-4.31;100.00
35519;BME280;21627;48.216;16.482;2024-01-10T10:10:22;101397.66;;;-4.20;100.00
35519;BME280;21627;48.216;16.482;2024-01-10T10:12:52;101392.47;;;-4.11;100.00
35519;BME280;21627;48.216;16.482;2024-01-10T10:15:24;101384.28;;;-3.99;100.00
35519;BME280;21627;48.216;16.482;2024-01-10T10:17:54;101389.75;;;-3.84;100.00
35519;BME280;21627;48.216;16.482;2024-01-10T10:20:32;101383.97;;;-3.73;100.00
35519;BME280;21627;48.216;16.482;2024-01-10T10:23:09;101387.53;;;-3.50;100.00
35519;BME280;21627;48.216;16.482;2024-01-10T10:25:44;101375.72;;;-3.19;100.00
35519;BME280;21627;48.216;16.482;2024-01-10T10:28:12;101382.13;;;-2.92;100.00
35519;BME280;21627;48.216;16.482;2024-01-10T10:30:55;101376.34;;;-2.69;100.00
35519;BME280;21627;48.216;16.482;2024-01-10T10:33:23;101366.00;;;-2.50;100.00
35519;BME280;21627;48.216;16.482;2024-01-10T10:35:51;101369.16;;;-2.20;100.00
35519;BME280;21627;48.216;16.482;2024-01-10T10:38:22;101366.69;;;-2.08;100.00
35519;BME280;21627;48.216;16.482;2024-01-10T10:40:51;101357.94;;;-1.90;100.00
35519;BME280;21627;48.216;16.482;2024-01-10T10:43:19;101352.34;;;-1.86;100.00
35519;BME280;21627;48.216;16.482;2024-01-10T10:45:49;101360.09;;;-1.72;100.00
35519;BME280;21627;48.216;16.482;2024-01-10T10:48:18;101356.38;;;-1.66;100.00
35519;BME280;21627;48.216;16.482;2024-01-10T10:51:37;101355.31;;;-1.34;100.00
35519;BME280;21627;48.216;16.482;2024-01-10T10:54:05;101342.22;;;-1.28;100.00
35519;BME280;21627;48.216;16.482;2024-01-10T10:56:33;101350.59;;;-1.18;100.00
35519;BME280;21627;48.216;16.482;2024-01-10T10:59:02;101329.28;;;-1.20;100.00
35519;BME280;21627;48.216;16.482;2024-01-10T11:01:32;101337.69;;;-0.97;100.00
35519;BME280;21627;48.216;16.482;2024-01-10T11:03:59;101332.28;;;-0.90;100.00
35519;BME280;21627;48.216;16.482;2024-01-10T11:06:27;101334.03;;;-0.77;100.00
35519;BME280;21627;48.216;16.482;2024-01-10T11:09:02;101323.19;;;-0.75;100.00
35519;BME280;21627;48.216;16.482;2024-01-10T11:21:18;101306.53;;;-0.34;100.00
35519;BME280;21627;48.216;16.482;2024-01-10T11:23:49;101295.41;;;-0.23;100.00
35519;BME280;21627;48.216;16.482;2024-01-10T11:26:19;101296.63;;;-0.18;100.00
35519;BME280;21627;48.216;16.482;2024-01-10T11:28:47;101287.56;;;-0.14;100.00
35519;BME280;21627;48.216;16.482;2024-01-10T11:31:16;101284.53;;;-0.09;99.30
35519;BME280;21627;48.216;16.482;2024-01-10T11:33:53;101289.28;;;0.12;100.00
35519;BME280;21627;48.216;16.482;2024-01-10T11:36:22;101293.22;;;0.20;100.00
35519;BME280;21627;48.216;16.482;2024-01-10T11:41:33;101284.47;;;0.41;98.75
35519;BME280;21627;48.216;16.482;2024-01-10T11:46:41;101282.91;;;0.57;99.08
35519;BME280;21627;48.216;16.482;2024-01-10T11:49:14;101277.94;;;0.72;97.39
35519;BME280;21627;48.216;16.482;2024-01-10T11:51:43;101276.75;;;0.80;97.44
35519;BME280;21627;48.216;16.482;2024-01-10T11:54:40;101269.59;;;0.88;100.00
35519;BME280;21627;48.216;16.482;2024-01-10T11:59:45;101255.06;;;1.13;97.01
35519;BME280;21627;48.216;16.482;2024-01-10T12:02:14;101256.13;;;1.30;96.70
35519;BME280;21627;48.216;16.482;2024-01-10T12:04:42;101241.06;;;1.20;96.38
35519;BME280;21627;48.216;16.482;2024-01-10T12:07:16;101252.69;;;1.29;97.08
35519;BME280;21627;48.216;16.482;2024-01-10T12:09:46;101253.50;;;1.43;95.12
35519;BME280;21627;48.216;16.482;2024-01-10T12:12:14;101254.59;;;1.47;96.14
35519;BME280;21627;48.216;16.482;2024-01-10T12:14:42;101244.06;;;1.56;96.04
35519;BME280;21627;48.216;16.482;2024-01-10T12:17:13;101228.41;;;1.49;93.64
35519;BME280;21627;48.216;16.482;2024-01-10T12:19:41;101246.47;;;1.67;93.12
35519;BME280;21627;48.216;16.482;2024-01-10T12:22:14;101238.50;;;1.48;91.61
35519;BME280;21627;48.216;16.482;2024-01-10T12:24:44;101243.81;;;1.66;92.38
35519;BME280;21627;48.216;16.482;2024-01-10T12:27:17;101228.66;;;1.82;92.13
35519;BME280;21627;48.216;16.482;2024-01-10T12:29:50;101235.97;;;1.91;92.42
35519;BME280;21627;48.216;16.482;2024-01-10T12:32:20;101235.38;;;2.10;92.65
35519;BME280;21627;48.216;16.482;2024-01-10T12:35:00;101231.31;;;2.13;95.56
35519;BME280;21627;48.216;16.482;2024-01-10T12:37:29;101221.66;;;2.23;90.87
35519;BME280;21627;48.216;16.482;2024-01-10T12:39:56;101225.59;;;2.32;89.74
35519;BME280;21627;48.216;16.482;2024-01-10T12:42:24;101216.38;;;2.20;89.25
35519;BME280;21627;48.216;16.482;2024-01-10T12:44:51;101217.78;;;2.00;90.62
35519;BME280;21627;48.216;16.482;2024-01-10T12:47:24;101227.19;;;2.01;90.96
35519;BME280;21627;48.216;16.482;2024-01-10T12:49:52;101211.88;;;2.15;89.66
35519;BME280;21627;48.216;16.482;2024-01-10T12:52:19;101211.59;;;2.26;90.59